Time;durP1;ratioP1;P1;durP2;ratioP2;P2;SDS_P1;SDS_P2;PMS_P1;PMS_P2;Temp;Humidity;BMP_temperature;BMP_pressure;BME280_temperature;BME280_humidity;BME280_pressure;Samples;Min_cycle;Max_cycle;Signal;HPM_P1;HPM_P2
2023/09/29 00:01:33;;;;;;;13.70;9.88;;;13.20;99.90;;;;;;4963129;28;20045;-78
2023/09/29 00:03:59;;;;;;;11.65;8.98;;;13.20;99.90;;;;;;4984254;28;20065;-79
2023/09/29 00:06:25;;;;;;;14.38;9.80;;;13.20;99.90;;;;;;4971750;28;20027;-77
2023/09/29 00:08:51;;;;;;;13.23;9.30;;;13.20;99.90;;;;;;4973893;28;20661;-79
2023/09/29 00:11:16;;;;;;;11.77;9.13;;;13.20;99.90;;;;;;4968547;28;20045;-78
2023/09/29 00:13:42;;;;;;;14.18;10.82;;;13.20;99.90;;;;;;4969443;28;20059;-79
2023/09/29 00:16:08;;;;;;;14.40;10.27;;;13.20;99.90;;;;;;4958296;28;20058;-78
2023/09/29 00:18:34;;;;;;;14.35;11.18;;;13.20;99.90;;;;;;4954265;28;20533;-78
2023/09/29 00:20:59;;;;;;;11.73;10.07;;;13.20;99.90;;;;;;4959548;28;20081;-78
2023/09/29 00:23:25;;;;;;;16.13;9.55;;;13.10;99.90;;;;;;4974807;28;20062;-78
2023/09/29 00:25:51;;;;;;;10.77;9.10;;;13.20;99.90;;;;;;4975010;28;20070;-79
2023/09/29 00:28:17;;;;;;;10.38;8.85;;;13.10;99.90;;;;;;4974359;28;20034;-78
2023/09/29 00:30:42;;;;;;;13.88;9.25;;;13.20;99.90;;;;;;4974358;28;20046;-78
2023/09/29 00:33:09;;;;;;;12.65;9.43;;;13.10;99.90;;;;;;4948362;28;20124;-78
2023/09/29 00:35:35;;;;;;;14.27;9.73;;;13.10;99.90;;;;;;4968484;28;20064;-77
2023/09/29 00:38:01;;;;;;;13.15;10.70;;;13.00;99.90;;;;;;4969816;28;20019;-78
2023/09/29 00:40:28;;;;;;;18.38;11.57;;;13.00;99.90;;;;;;4952143;28;20030;-78
2023/09/29 00:42:54;;;;;;;13.60;10.75;;;13.00;99.90;;;;;;4970356;28;20042;-78
2023/09/29 00:45:25;;;;;;;15.15;11.27;;;12.90;99.90;;;;;;4952783;28;20494;-78
2023/09/29 00:47:57;;;;;;;15.60;12.00;;;12.90;99.90;;;;;;4951486;28;20023;-79
2023/09/29 00:50:28;;;;;;;17.88;11.23;;;13.00;99.90;;;;;;4967663;28;20059;-79
2023/09/29 00:52:59;;;;;;;13.00;10.05;;;13.00;99.90;;;;;;4968816;28;20038;-78
2023/09/29 00:55:28;;;;;;;13.57;10.50;;;13.10;99.90;;;;;;4969094;28;20022;-78
2023/09/29 00:57:57;;;;;;;13.73;10.88;;;13.10;99.90;;;;;;4971629;28;20706;-78
2023/09/29 01:02:58;;;;;;;14.20;10.35;;;13.20;99.90;;;;;;4955958;28;20035;-79
2023/09/29 01:05:24;;;;;;;14.85;10.45;;;13.20;99.90;;;;;;4953367;28;20730;-80
2023/09/29 01:07:51;;;;;;;13.80;9.75;;;13.20;99.90;;;;;;4967546;28;20146;-79
2023/09/29 01:10:20;;;;;;;13.68;10.50;;;13.10;99.90;;;;;;4970592;28;20481;-79
2023/09/29 01:12:46;;;;;;;12.77;9.50;;;13.10;99.90;;;;;;4972904;28;20050;-79
2023/09/29 01:15:15;;;;;;;11.10;9.13;;;13.10;99.90;;;;;;4956327;28;20046;-78
2023/09/29 01:17:44;;;;;;;13.90;10.50;;;13.10;99.90;;;;;;4973489;28;20022;-79
2023/09/29 01:20:25;;;;;;;13.20;10.27;;;13.10;99.90;;;;;;4959287;28;20121;-78
2023/09/29 01:22:50;;;;;;;15.45;11.48;;;13.10;99.90;;;;;;4968465;28;20082;-79
2023/09/29 01:25:17;;;;;;;15.65;10.70;;;13.00;99.90;;;;;;4958394;28;20109;-78
2023/09/29 01:27:45;;;;;;;14.43;11.23;;;13.00;99.90;;;;;;4976946;28;20039;-81
2023/09/29 01:30:13;;;;;;;16.30;11.52;;;12.90;99.90;;;;;;4967322;28;20034;-77
2023/09/29 01:32:41;;;;;;;14.18;10.95;;;12.80;99.90;;;;;;4974161;28;20031;-80
2023/09/29 01:35:07;;;;;;;15.60;9.90;;;12.90;99.90;;;;;;4972536;28;20111;-82
2023/09/29 01:37:34;;;;;;;13.55;9.27;;;12.90;99.90;;;;;;4961523;28;20042;-80
2023/09/29 01:40:00;;;;;;;12.18;9.00;;;12.90;99.90;;;;;;4974070;28;20027;-80
2023/09/29 01:42:25;;;;;;;13.93;7.35;;;12.90;99.90;;;;;;4974630;28;20027;-79
2023/09/29 01:44:51;;;;;;;11.30;7.03;;;12.90;99.90;;;;;;4954033;28;20106;-80
2023/09/29 01:47:17;;;;;;;8.90;7.53;;;12.90;99.90;;;;;;4969856;28;20069;-77
2023/09/29 01:49:43;;;;;;;12.50;8.57;;;12.90;99.90;;;;;;4942164;28;20113;-79
2023/09/29 01:52:08;;;;;;;13.18;9.18;;;12.80;99.90;;;;;;4978189;28;20542;-80
2023/09/29 01:54:35;;;;;;;10.95;8.63;;;12.80;99.90;;;;;;4977411;28;20026;-81
2023/09/29 01:57:02;;;;;;;12.10;9.45;;;12.80;99.90;;;;;;4978245;28;20542;-80
2023/09/29 01:59:28;;;;;;;12.32;9.93;;;12.80;99.90;;;;;;4972727;28;20046;-79
2023/09/29 02:01:57;;;;;;;14.55;9.60;;;12.80;99.90;;;;;;4972212;28;20037;-80
2023/09/29 02:04:22;;;;;;;13.23;9.55;;;12.80;99.90;;;;;;4978933;28;20039;-80
2023/09/29 02:06:50;;;;;;;12.90;9.95;;;12.70;99.90;;;;;;4984765;28;20026;-80
2023/09/29 02:09:16;;;;;;;17.60;11.00;;;12.80;99.90;;;;;;4975521;28;20067;-80
2023/09/29 02:11:45;;;;;;;17.15;12.07;;;12.70;99.90;;;;;;4957749;28;20022;-80
2023/09/29 02:14:12;;;;;;;14.32;11.02;;;12.70;99.90;;;;;;4976748;28;20125;-82
2023/09/29 02:16:37;;;;;;;22.83;12.35;;;12.60;99.90;;;;;;4955743;28;20551;-79
2023/09/29 02:19:05;;;;;;;17.77;11.82;;;12.60;99.90;;;;;;4937823;28;20036;-79
2023/09/29 02:21:32;;;;;;;17.13;12.40;;;12.60;99.90;;;;;;4972911;28;20118;-79
2023/09/29 02:23:58;;;;;;;17.35;12.23;;;12.50;99.90;;;;;;4961539;28;20038;-79
2023/09/29 02:26:25;;;;;;;14.25;11.20;;;12.60;99.90;;;;;;4977296;28;20090;-80
2023/09/29 02:28:54;;;;;;;14.80;10.82;;;12.60;99.90;;;;;;4979503;28;20153;-79
2023/09/29 02:31:19;;;;;;;18.17;10.88;;;12.60;99.90;;;;;;4961917;28;20509;-80
2023/09/29 02:33:45;;;;;;;15.07;9.23;;;12.60;99.90;;;;;;4969541;28;20122;-80
2023/09/29 02:36:12;;;;;;;14.38;9.75;;;12.70;99.90;;;;;;4971273;28;20511;-80
2023/09/29 02:38:38;;;;;;;16.92;10.30;;;12.70;99.90;;;;;;4973260;28;20027;-80
2023/09/29 02:41:07;;;;;;;14.73;10.65;;;12.60;99.90;;;;;;4977712;28;20031;-79
2023/09/29 02:43:33;;;;;;;16.52;11.07;;;12.50;99.90;;;;;;4956635;28;20605;-80
2023/09/29 02:45:59;;;;;;;19.08;13.13;;;12.50;99.90;;;;;;4974855;28;20047;-79
2023/09/29 02:48:27;;;;;;;16.23;12.27;;;12.50;99.90;;;;;;4984140;28;20392;-80
2023/09/29 02:50:53;;;;;;;17.30;11.57;;;12.40;99.90;;;;;;4980584;28;20020;-79
2023/09/29 02:53:21;;;;;;;12.48;10.30;;;12.40;99.90;;;;;;4942313;28;20055;-79
2023/09/29 02:55:47;;;;;;;15.52;11.85;;;12.40;99.90;;;;;;4957999;28;20035;-80
2023/09/29 02:58:13;;;;;;;14.07;12.13;;;12.40;99.90;;;;;;4979912;28;20053;-79
2023/09/29 03:00:42;;;;;;;14.10;10.65;;;12.40;99.90;;;;;;4961390;28;20494;-78
2023/09/29 03:03:09;;;;;;;13.50;11.10;;;12.30;99.90;;;;;;4984565;28;20058;-79
2023/09/29 03:05:35;;;;;;;16.17;12.23;;;12.40;99.90;;;;;;4979990;28;20054;-80
2023/09/29 03:08:01;;;;;;;19.20;12.43;;;12.40;99.90;;;;;;4960129;28;20066;-82
2023/09/29 03:10:30;;;;;;;14.82;11.50;;;12.30;99.90;;;;;;4963333;28;20562;-79
2023/09/29 03:12:56;;;;;;;15.38;11.30;;;12.30;99.90;;;;;;4958719;28;20033;-77
2023/09/29 03:15:23;;;;;;;15.88;12.10;;;12.30;99.90;;;;;;4971600;28;20026;-80
2023/09/29 03:17:49;;;;;;;14.63;10.93;;;12.30;99.90;;;;;;4979733;28;20019;-79
2023/09/29 03:20:15;;;;;;;14.57;11.55;;;12.30;99.90;;;;;;4958617;28;20034;-79
2023/09/29 03:22:44;;;;;;;15.25;11.25;;;12.30;99.90;;;;;;4979096;28;20085;-80
2023/09/29 03:25:10;;;;;;;18.30;12.43;;;12.30;99.90;;;;;;4984084;28;20045;-80
2023/09/29 03:27:36;;;;;;;16.33;12.25;;;12.30;99.90;;;;;;4983062;28;20065;-80
2023/09/29 03:30:05;;;;;;;14.40;10.10;;;12.30;99.90;;;;;;4982471;28;20431;-80
2023/09/29 03:32:31;;;;;;;15.60;10.65;;;12.30;99.90;;;;;;4968563;28;20034;-80
2023/09/29 03:34:57;;;;;;;14.63;10.80;;;12.40;99.90;;;;;;4962785;28;20121;-79
2023/09/29 03:37:23;;;;;;;16.83;12.55;;;12.40;99.90;;;;;;4980063;28;20459;-79
2023/09/29 03:39:49;;;;;;;17.27;11.95;;;12.30;99.90;;;;;;4980342;28;20030;-80
2023/09/29 03:42:16;;;;;;;15.93;11.40;;;12.30;99.90;;;;;;4980769;28;20077;-80
2023/09/29 03:44:44;;;;;;;14.18;11.05;;;12.20;99.90;;;;;;4982772;28;20026;-81
2023/09/29 03:47:12;;;;;;;15.52;11.38;;;12.20;99.90;;;;;;4974876;28;20058;-79
2023/09/29 03:49:38;;;;;;;12.95;10.73;;;12.20;99.90;;;;;;4972242;28;20443;-80
2023/09/29 03:52:06;;;;;;;17.27;12.00;;;12.30;99.90;;;;;;4978469;28;20039;-79
2023/09/29 03:54:33;;;;;;;16.25;12.55;;;12.20;99.90;;;;;;4982794;28;20035;-79
2023/09/29 03:57:01;;;;;;;15.40;11.70;;;12.10;99.90;;;;;;4970902;28;20098;-80
2023/09/29 03:59:27;;;;;;;16.30;12.18;;;12.10;99.90;;;;;;4955596;28;20090;-80
2023/09/29 04:01:53;;;;;;;15.27;11.40;;;12.10;99.90;;;;;;4972824;28;20031;-79
2023/09/29 04:04:19;;;;;;;13.60;11.25;;;12.10;99.90;;;;;;4974959;28;20042;-79
2023/09/29 04:06:45;;;;;;;15.57;11.60;;;12.10;99.90;;;;;;4979945;28;20038;-79
2023/09/29 04:09:11;;;;;;;17.33;11.38;;;12.10;99.90;;;;;;4979214;28;20035;-80
2023/09/29 04:11:40;;;;;;;16.75;12.35;;;12.00;99.90;;;;;;4978867;28;20600;-80
2023/09/29 04:14:06;;;;;;;16.15;12.07;;;11.90;99.90;;;;;;4976968;28;20134;-81
2023/09/29 04:16:32;;;;;;;18.73;12.60;;;11.90;99.90;;;;;;4973084;28;20103;-79
2023/09/29 04:18:58;;;;;;;19.40;11.48;;;11.80;99.90;;;;;;4977207;28;20034;-79
2023/09/29 04:21:24;;;;;;;17.08;12.10;;;11.80;99.90;;;;;;4984018;28;20126;-80
2023/09/29 04:23:49;;;;;;;14.70;11.63;;;11.80;99.90;;;;;;4983812;28;20034;-80
2023/09/29 04:26:19;;;;;;;13.57;10.57;;;11.80;99.90;;;;;;4985765;28;20045;-80
2023/09/29 04:28:46;;;;;;;14.23;11.90;;;11.80;99.90;;;;;;4958126;28;20035;-79
2023/09/29 04:31:14;;;;;;;17.90;12.68;;;11.80;99.90;;;;;;4977542;28;20084;-79
2023/09/29 04:33:41;;;;;;;19.05;13.27;;;11.80;99.90;;;;;;4973103;28;20022;-79
2023/09/29 04:36:07;;;;;;;20.23;14.55;;;11.70;99.90;;;;;;4971273;28;20061;-79
2023/09/29 04:38:33;;;;;;;17.20;12.73;;;11.80;99.90;;;;;;4978588;28;20027;-79
2023/09/29 04:40:59;;;;;;;19.75;12.77;;;11.80;99.90;;;;;;4969836;28;20046;-79
2023/09/29 04:43:28;;;;;;;18.00;13.05;;;11.80;99.90;;;;;;4980416;28;20030;-79
2023/09/29 04:45:55;;;;;;;16.40;12.30;;;11.90;99.90;;;;;;4982430;28;20034;-79
2023/09/29 04:48:21;;;;;;;16.73;12.68;;;11.90;99.90;;;;;;4952248;28;20038;-80
2023/09/29 04:50:47;;;;;;;15.98;11.15;;;12.00;99.90;;;;;;4981696;28;20475;-80
2023/09/29 04:53:13;;;;;;;13.60;11.43;;;12.00;99.90;;;;;;4977386;28;20129;-80
2023/09/29 04:55:39;;;;;;;16.77;12.93;;;12.00;99.90;;;;;;4974731;28;20034;-78
2023/09/29 04:58:04;;;;;;;18.00;13.48;;;12.00;99.90;;;;;;4970395;28;20030;-80
2023/09/29 05:00:30;;;;;;;19.08;14.48;;;12.00;99.90;;;;;;4974341;28;20034;-79
2023/09/29 05:03:14;;;;;;;20.00;14.18;;;12.00;99.90;;;;;;4979448;28;20109;-80
2023/09/29 05:05:40;;;;;;;19.02;13.00;;;12.00;99.90;;;;;;4981922;28;20093;-80
2023/09/29 05:08:07;;;;;;;16.40;12.60;;;12.00;99.90;;;;;;4979148;28;20026;-81
2023/09/29 05:10:33;;;;;;;15.98;11.90;;;12.10;99.90;;;;;;4981388;28;20037;-80
2023/09/29 05:12:59;;;;;;;17.77;11.68;;;12.10;99.90;;;;;;4981369;28;20099;-80
2023/09/29 05:15:24;;;;;;;19.90;14.43;;;12.10;99.90;;;;;;4976933;28;20038;-80
2023/09/29 05:17:50;;;;;;;22.63;16.02;;;12.10;99.90;;;;;;4969724;28;20114;-80
2023/09/29 05:20:16;;;;;;;22.10;15.40;;;12.10;99.90;;;;;;4962538;28;20041;-81
2023/09/29 05:22:42;;;;;;;18.50;14.25;;;12.10;99.90;;;;;;4970231;28;20048;-81
2023/09/29 05:25:08;;;;;;;20.33;13.82;;;12.10;99.90;;;;;;4949375;28;20038;-79
2023/09/29 05:27:34;;;;;;;20.60;14.77;;;12.20;99.90;;;;;;4970244;28;20042;-79
2023/09/29 05:30:00;;;;;;;22.98;16.48;;;12.20;99.90;;;;;;4972709;28;20127;-79
2023/09/29 05:32:25;;;;;;;27.83;19.73;;;12.30;99.90;;;;;;4974090;28;20042;-79
2023/09/29 05:34:51;;;;;;;22.58;15.88;;;12.30;99.90;;;;;;4963432;28;20440;-77
2023/09/29 05:37:23;;;;;;;23.85;16.45;;;12.40;99.90;;;;;;4972314;28;20050;-81
2023/09/29 05:39:49;;;;;;;20.20;14.30;;;12.50;99.90;;;;;;4952162;28;20030;-80
2023/09/29 05:42:15;;;;;;;19.15;14.70;;;12.60;99.90;;;;;;4971236;28;20053;-82
2023/09/29 05:44:41;;;;;;;22.67;16.55;;;12.70;99.90;;;;;;4960506;28;20567;-79
2023/09/29 05:47:06;;;;;;;24.38;16.38;;;12.80;99.90;;;;;;4985434;28;20058;-79
2023/09/29 05:49:32;;;;;;;24.30;15.57;;;12.90;99.90;;;;;;4974250;28;20034;-80
2023/09/29 05:51:58;;;;;;;23.45;16.10;;;13.00;99.90;;;;;;4970397;28;20031;-81
2023/09/29 05:54:23;;;;;;;23.55;16.15;;;13.00;99.90;;;;;;4983968;28;20259;-80
2023/09/29 05:56:50;;;;;;;24.30;16.95;;;13.10;99.90;;;;;;4977781;28;20034;-79
2023/09/29 05:59:16;;;;;;;25.15;15.98;;;13.20;99.90;;;;;;4976263;28;20038;-81
2023/09/29 06:01:42;;;;;;;21.00;14.30;;;13.30;99.90;;;;;;4959670;28;20446;-79
2023/09/29 06:04:07;;;;;;;22.90;16.27;;;13.40;99.90;;;;;;4975608;28;20097;-80
2023/09/29 06:06:33;;;;;;;25.10;17.33;;;13.40;99.90;;;;;;4980099;28;20107;-79
2023/09/29 06:08:59;;;;;;;20.92;14.73;;;13.50;99.90;;;;;;4970320;28;20050;-80
2023/09/29 06:11:28;;;;;;;15.55;11.95;;;13.60;99.90;;;;;;4969157;28;20047;-79
2023/09/29 06:13:53;;;;;;;21.15;15.43;;;13.70;99.90;;;;;;4968003;28;20031;-79
2023/09/29 06:16:19;;;;;;;26.42;15.55;;;13.90;99.90;;;;;;4970088;28;20130;-80
2023/09/29 06:18:46;;;;;;;22.88;16.30;;;14.10;99.90;;;;;;4970889;28;20060;-80
2023/09/29 06:21:12;;;;;;;20.48;15.55;;;14.30;99.90;;;;;;4977100;28;20606;-80
2023/09/29 06:23:38;;;;;;;22.00;14.40;;;14.50;99.90;;;;;;4972122;28;20514;-79
2023/09/29 06:26:03;;;;;;;20.83;14.20;;;14.70;99.90;;;;;;4968258;28;20031;-78
2023/09/29 06:28:30;;;;;;;19.40;14.48;;;14.80;99.90;;;;;;4951743;28;20676;-78
2023/09/29 06:30:56;;;;;;;19.52;13.02;;;14.90;99.90;;;;;;4966408;28;20102;-77
2023/09/29 06:33:22;;;;;;;17.33;13.20;;;15.00;99.90;;;;;;4966318;28;20110;-78
2023/09/29 06:35:48;;;;;;;21.20;14.75;;;15.10;99.90;;;;;;4956108;28;20491;-78
2023/09/29 06:38:15;;;;;;;19.75;13.32;;;15.10;99.90;;;;;;4956897;28;20046;-81
2023/09/29 06:40:43;;;;;;;18.50;14.27;;;15.20;99.90;;;;;;4971394;28;20515;-77
2023/09/29 06:43:09;;;;;;;16.33;12.52;;;15.20;99.90;;;;;;4966942;28;20118;-78
2023/09/29 06:45:35;;;;;;;15.88;12.10;;;15.40;99.90;;;;;;4967975;28;20201;-77
2023/09/29 06:48:00;;;;;;;18.77;13.25;;;15.40;99.90;;;;;;4968225;28;20045;-78
2023/09/29 06:50:26;;;;;;;19.23;13.05;;;15.50;99.90;;;;;;4964059;28;20042;-78
2023/09/29 06:52:52;;;;;;;15.25;12.00;;;15.60;99.90;;;;;;4965405;28;20034;-77
2023/09/29 06:55:18;;;;;;;15.73;12.00;;;15.60;99.90;;;;;;4949280;28;20035;-78
2023/09/29 06:57:43;;;;;;;14.32;12.07;;;15.80;99.90;;;;;;4967032;28;20174;-77
2023/09/29 07:00:10;;;;;;;15.20;11.55;;;16.00;99.90;;;;;;4977609;28;20173;-77
2023/09/29 07:02:36;;;;;;;16.00;11.80;;;16.20;99.90;;;;;;4973829;28;20081;-78
2023/09/29 07:05:02;;;;;;;17.08;11.95;;;16.20;99.90;;;;;;4977419;28;20109;-77
2023/09/29 07:07:28;;;;;;;14.20;11.40;;;16.40;99.90;;;;;;4976347;28;20030;-77
2023/09/29 07:09:54;;;;;;;14.15;11.23;;;16.50;99.90;;;;;;4980296;28;20502;-78
2023/09/29 07:12:23;;;;;;;13.02;10.80;;;16.60;99.90;;;;;;4971981;28;20039;-78
2023/09/29 07:14:51;;;;;;;15.98;12.00;;;16.70;99.90;;;;;;4954687;28;20575;-78
2023/09/29 07:17:17;;;;;;;18.95;12.18;;;16.80;99.90;;;;;;4956317;28;20114;-78
2023/09/29 07:19:43;;;;;;;15.43;11.40;;;16.90;99.90;;;;;;4984353;28;20034;-78
2023/09/29 07:22:08;;;;;;;16.02;10.93;;;17.00;99.90;;;;;;4973278;28;20045;-77
2023/09/29 07:24:34;;;;;;;13.25;10.73;;;17.20;99.90;;;;;;4958279;28;20037;-78
2023/09/29 07:27:00;;;;;;;14.10;10.73;;;17.30;99.90;;;;;;4971168;28;20034;-78
2023/09/29 07:29:26;;;;;;;14.52;11.32;;;17.40;99.90;;;;;;4968871;28;20046;-78
2023/09/29 07:31:51;;;;;;;13.25;10.60;;;17.40;99.90;;;;;;4970141;28;20035;-77
2023/09/29 07:34:17;;;;;;;17.25;12.05;;;17.20;99.90;;;;;;4973402;28;20131;-77
2023/09/29 07:36:48;;;;;;;14.07;11.52;;;16.90;99.90;;;;;;4973768;28;20494;-79
2023/09/29 07:39:15;;;;;;;14.18;11.13;;;16.80;99.90;;;;;;4966785;28;20038;-79
2023/09/29 07:41:41;;;;;;;14.45;11.55;;;16.70;99.90;;;;;;4965171;28;20035;-79
2023/09/29 07:44:08;;;;;;;13.75;11.60;;;16.70;99.90;;;;;;4962732;28;20046;-80
2023/09/29 07:46:37;;;;;;;15.82;10.55;;;16.60;99.90;;;;;;4957904;28;20047;-79
2023/09/29 07:49:03;;;;;;;16.60;10.75;;;16.70;99.90;;;;;;4978289;28;20609;-79
2023/09/29 07:51:30;;;;;;;13.45;10.55;;;16.60;99.90;;;;;;4969544;28;20024;-78
2023/09/29 07:53:57;;;;;;;15.68;10.88;;;16.60;99.90;;;;;;4969248;28;20027;-77
2023/09/29 07:56:22;;;;;;;13.27;9.93;;;16.70;99.90;;;;;;4967252;28;20081;-78
2023/09/29 07:58:48;;;;;;;14.80;10.18;;;16.70;99.90;;;;;;4974081;28;20066;-77
2023/09/29 08:01:14;;;;;;;14.65;10.25;;;16.70;99.90;;;;;;4951727;28;20051;-78
2023/09/29 08:03:42;;;;;;;15.30;10.63;;;16.70;99.90;;;;;;4969233;28;20062;-79
2023/09/29 08:06:08;;;;;;;12.98;10.40;;;16.70;99.90;;;;;;4971550;28;20657;-79
2023/09/29 08:08:35;;;;;;;13.52;9.65;;;16.60;99.90;;;;;;4966456;28;20511;-78
2023/09/29 08:11:02;;;;;;;13.45;9.90;;;16.70;99.90;;;;;;4965037;28;20038;-77
2023/09/29 08:13:28;;;;;;;15.93;10.63;;;16.80;99.90;;;;;;4965872;28;20118;-80
2023/09/29 08:15:53;;;;;;;17.58;10.82;;;16.80;99.90;;;;;;4970034;28;20087;-78
2023/09/29 08:18:19;;;;;;;16.42;11.07;;;16.90;99.90;;;;;;4963710;28;20042;-76
2023/09/29 08:20:46;;;;;;;13.30;10.48;;;16.90;99.90;;;;;;4961716;28;20035;-80
2023/09/29 08:23:12;;;;;;;15.77;10.50;;;16.90;99.90;;;;;;4973887;28;20066;-77
2023/09/29 08:25:38;;;;;;;15.70;10.80;;;16.90;99.90;;;;;;4966985;28;20066;-79
2023/09/29 08:28:06;;;;;;;14.18;10.35;;;17.10;99.90;;;;;;4969115;28;20620;-78
2023/09/29 08:30:31;;;;;;;13.27;11.30;;;17.00;99.90;;;;;;4950010;28;20136;-78
2023/09/29 08:32:57;;;;;;;12.05;9.80;;;17.20;99.90;;;;;;4964646;28;20568;-78
2023/09/29 08:35:23;;;;;;;12.43;10.27;;;17.20;99.90;;;;;;4966520;28;20035;-78
2023/09/29 08:37:49;;;;;;;13.57;10.73;;;17.30;99.90;;;;;;4975665;28;20018;-77
2023/09/29 08:40:19;;;;;;;14.40;9.68;;;17.30;99.90;;;;;;4966743;28;20411;-78
2023/09/29 08:42:51;;;;;;;14.50;9.63;;;17.40;99.90;;;;;;4974156;28;20045;-77
2023/09/29 08:45:18;;;;;;;12.32;9.63;;;17.40;99.90;;;;;;4970343;28;20035;-78
2023/09/29 08:47:51;;;;;;;14.05;10.23;;;17.50;99.90;;;;;;4947789;28;20031;-78
2023/09/29 08:50:18;;;;;;;12.60;9.52;;;17.60;99.90;;;;;;4965094;28;20027;-78
2023/09/29 08:52:45;;;;;;;10.98;8.75;;;17.70;99.90;;;;;;4957450;28;20033;-78
2023/09/29 08:55:14;;;;;;;12.90;9.02;;;17.80;99.90;;;;;;4964589;28;20100;-77
2023/09/29 08:57:43;;;;;;;16.08;9.70;;;17.90;99.90;;;;;;4967433;28;20799;-78
2023/09/29 09:00:13;;;;;;;10.45;8.85;;;18.00;99.90;;;;;;4968639;28;20030;-77
2023/09/29 09:02:44;;;;;;;10.98;9.52;;;18.10;99.90;;;;;;4963922;28;20173;-78
2023/09/29 09:05:14;;;;;;;12.05;8.68;;;18.20;99.90;;;;;;4968702;28;20538;-79
2023/09/29 09:07:44;;;;;;;12.00;8.63;;;18.40;99.90;;;;;;4982629;28;20030;-78
2023/09/29 09:10:11;;;;;;;10.43;8.80;;;18.40;99.90;;;;;;4967839;28;20026;-77
2023/09/29 09:12:40;;;;;;;12.82;9.40;;;18.40;99.90;;;;;;4964046;28;20035;-79
2023/09/29 09:15:11;;;;;;;12.52;8.32;;;18.50;99.90;;;;;;4975368;28;20084;-78
2023/09/29 09:17:37;;;;;;;10.23;9.07;;;18.50;99.90;;;;;;4959853;28;21388;-77
2023/09/29 09:20:03;;;;;;;13.45;9.00;;;18.60;99.90;;;;;;4975351;28;20031;-78
2023/09/29 09:22:38;;;;;;;11.27;8.88;;;18.60;99.90;;;;;;4970442;28;20065;-79
2023/09/29 09:25:04;;;;;;;11.25;8.45;;;18.70;99.90;;;;;;4978111;28;20117;-79
2023/09/29 09:27:40;;;;;;;12.02;9.00;;;18.70;99.90;;;;;;4979665;28;20027;-79
2023/09/29 09:30:18;;;;;;;8.38;7.50;;;18.90;99.90;;;;;;4962272;28;20050;-77
2023/09/29 09:32:43;;;;;;;10.80;9.70;;;18.90;99.90;;;;;;4963069;28;20057;-80
2023/09/29 09:35:10;;;;;;;9.35;8.38;;;19.00;99.90;;;;;;4961439;28;20058;-79
2023/09/29 09:37:36;;;;;;;9.85;7.45;;;19.10;99.90;;;;;;4959970;28;20038;-79
2023/09/29 09:40:05;;;;;;;9.90;7.35;;;19.30;99.90;;;;;;4959589;28;20086;-78
2023/09/29 09:42:30;;;;;;;11.10;8.27;;;19.50;99.90;;;;;;4961506;28;20471;-80
2023/09/29 09:44:59;;;;;;;11.98;7.80;;;19.50;99.90;;;;;;4962571;28;20043;-76
2023/09/29 09:47:26;;;;;;;11.02;7.45;;;19.60;99.90;;;;;;4963620;28;20035;-78
2023/09/29 09:49:56;;;;;;;8.25;6.80;;;19.70;99.90;;;;;;4967027;28;20059;-79
2023/09/29 09:52:31;;;;;;;7.35;6.07;;;19.80;99.90;;;;;;4965910;28;20038;-78
2023/09/29 09:55:02;;;;;;;12.27;6.07;;;20.00;99.90;;;;;;4957004;28;20034;-78
2023/09/29 09:57:37;;;;;;;9.95;6.43;;;20.10;99.90;;;;;;4965309;28;20103;-80
2023/09/29 10:00:06;;;;;;;8.50;6.75;;;20.20;99.90;;;;;;4969780;28;20042;-78
2023/09/29 10:02:46;;;;;;;13.48;7.53;;;20.30;99.90;;;;;;4974471;28;20050;-78
2023/09/29 10:05:22;;;;;;;7.97;7.18;;;20.30;99.90;;;;;;4974315;28;20026;-78
2023/09/29 10:08:05;;;;;;;12.32;7.05;;;20.40;99.90;;;;;;4966970;28;20416;-77
2023/09/29 10:10:37;;;;;;;8.90;6.20;;;20.50;99.90;;;;;;4974643;28;20093;-78
2023/09/29 10:13:05;;;;;;;8.82;6.07;;;20.60;99.90;;;;;;4972588;28;20038;-78
2023/09/29 10:15:32;;;;;;;9.35;6.32;;;20.60;99.90;;;;;;4979670;28;20117;-78
2023/09/29 10:17:59;;;;;;;11.07;6.22;;;20.70;99.90;;;;;;4969276;28;20081;-78
2023/09/29 10:20:29;;;;;;;10.15;6.55;;;20.80;99.90;;;;;;4953505;28;20119;-79
2023/09/29 10:23:27;;;;;;;9.95;6.22;;;20.80;99.90;;;;;;4968748;28;20031;-79
2023/09/29 10:25:58;;;;;;;9.07;5.97;;;21.00;99.90;;;;;;4929360;28;20069;-79
2023/09/29 10:28:46;;;;;;;8.73;5.70;;;21.10;99.90;;;;;;4973396;28;20826;-78
2023/09/29 10:31:15;;;;;;;7.20;6.03;;;21.20;99.90;;;;;;4968766;28;20049;-79
2023/09/29 10:33:53;;;;;;;7.80;5.28;;;21.30;99.90;;;;;;4972863;28;20053;-77
2023/09/29 10:36:30;;;;;;;6.10;5.05;;;21.30;99.90;;;;;;4966917;28;20062;-78
2023/09/29 10:38:58;;;;;;;7.45;4.97;;;21.30;99.90;;;;;;4972246;28;20023;-79
2023/09/29 10:41:32;;;;;;;8.43;5.22;;;21.40;99.90;;;;;;4962218;28;20068;-78
2023/09/29 10:43:59;;;;;;;6.00;4.75;;;21.40;99.90;;;;;;4976559;28;20057;-79
2023/09/29 10:46:25;;;;;;;8.55;5.03;;;21.50;99.90;;;;;;4959576;28;20187;-78
2023/09/29 10:48:53;;;;;;;7.95;4.85;;;21.50;99.90;;;;;;4951620;28;20396;-78
2023/09/29 10:51:26;;;;;;;9.05;5.30;;;21.40;99.90;;;;;;4971965;28;20027;-77
2023/09/29 10:53:52;;;;;;;7.50;5.00;;;21.40;99.90;;;;;;4973216;28;20427;-77
2023/09/29 10:56:23;;;;;;;7.82;4.90;;;21.40;99.90;;;;;;4970107;28;20027;-80
2023/09/29 10:58:53;;;;;;;8.02;5.32;;;21.50;99.90;;;;;;4970080;28;20114;-79
2023/09/29 11:01:31;;;;;;;6.68;4.80;;;21.50;99.90;;;;;;4949528;28;20102;-78
2023/09/29 11:03:58;;;;;;;5.30;4.30;;;21.50;99.90;;;;;;4947326;28;20039;-79
2023/09/29 11:06:24;;;;;;;6.68;4.38;;;21.60;99.90;;;;;;4960315;28;20038;-78
2023/09/29 11:08:58;;;;;;;6.75;4.82;;;21.70;99.90;;;;;;4963514;28;20027;-78
2023/09/29 11:11:33;;;;;;;4.25;3.85;;;21.80;99.90;;;;;;4961587;28;20049;-77
2023/09/29 11:14:00;;;;;;;7.32;4.80;;;21.80;99.90;;;;;;4961524;28;20460;-79
2023/09/29 11:16:27;;;;;;;7.60;4.60;;;21.90;99.90;;;;;;4947393;28;20109;-79
2023/09/29 11:18:56;;;;;;;4.47;4.05;;;21.90;99.90;;;;;;4954130;28;20452;-79
2023/09/29 11:21:35;;;;;;;6.55;3.85;;;22.00;99.90;;;;;;4970907;28;20035;-78
2023/09/29 11:24:09;;;;;;;3.88;3.40;;;22.00;99.90;;;;;;4968286;28;20109;-79
2023/09/29 11:26:40;;;;;;;4.55;3.55;;;22.00;99.90;;;;;;4967221;28;20034;-79
2023/09/29 11:29:08;;;;;;;4.90;3.63;;;21.90;99.90;;;;;;4968679;28;20030;-78
2023/09/29 11:31:38;;;;;;;4.72;3.33;;;21.90;99.90;;;;;;4960356;28;20031;-80
2023/09/29 11:34:06;;;;;;;3.50;3.15;;;21.80;99.90;;;;;;4951579;28;20035;-78
2023/09/29 11:36:33;;;;;;;4.53;3.63;;;21.80;99.90;;;;;;4948810;28;20151;-80
2023/09/29 11:38:59;;;;;;;7.63;3.58;;;21.70;99.90;;;;;;4968310;28;20027;-80
2023/09/29 11:41:24;;;;;;;4.18;3.70;;;21.70;99.90;;;;;;4969357;28;20066;-77
2023/09/29 11:43:50;;;;;;;6.53;3.45;;;21.60;99.90;;;;;;4973070;28;20039;-81
2023/09/29 11:46:16;;;;;;;4.88;3.30;;;21.50;99.90;;;;;;4971491;28;20037;-79
2023/09/29 11:48:43;;;;;;;4.18;3.50;;;21.50;99.90;;;;;;4969322;28;20102;-78
2023/09/29 11:51:10;;;;;;;5.82;3.72;;;21.50;99.90;;;;;;4954281;28;20039;-78
2023/09/29 11:53:38;;;;;;;5.32;3.92;;;21.50;99.90;;;;;;4961314;28;20155;-78
2023/09/29 11:56:05;;;;;;;3.42;3.13;;;21.50;99.90;;;;;;4960765;28;20036;-80
2023/09/29 11:58:31;;;;;;;4.93;3.25;;;21.60;99.90;;;;;;4959846;28;20691;-81
2023/09/29 12:00:58;;;;;;;4.35;3.28;;;21.60;99.90;;;;;;4958485;28;20033;-79
2023/09/29 12:03:24;;;;;;;3.70;3.20;;;21.70;99.90;;;;;;4961981;28;20043;-80
2023/09/29 12:05:50;;;;;;;6.45;3.63;;;21.80;99.90;;;;;;4965441;28;20085;-78
2023/09/29 12:08:19;;;;;;;4.65;3.30;;;21.90;99.90;;;;;;4950268;28;20526;-79
2023/09/29 12:10:45;;;;;;;3.97;2.95;;;22.10;99.90;;;;;;4953736;28;20031;-81
2023/09/29 12:13:15;;;;;;;7.43;3.33;;;22.20;99.90;;;;;;4971730;28;20035;-80
2023/09/29 12:15:42;;;;;;;6.65;2.95;;;22.30;99.90;;;;;;4944025;28;20035;-78
2023/09/29 12:18:09;;;;;;;3.75;3.10;;;22.40;99.90;;;;;;4964630;28;20171;-79
2023/09/29 12:20:35;;;;;;;4.10;3.40;;;22.60;99.90;;;;;;4964435;28;20039;-79
2023/09/29 12:23:01;;;;;;;4.15;3.20;;;22.70;99.90;;;;;;4965799;28;20034;-79
2023/09/29 12:25:27;;;;;;;7.25;3.40;;;22.90;99.90;;;;;;4961755;28;20039;-79
2023/09/29 12:27:54;;;;;;;6.75;3.80;;;23.10;99.90;;;;;;4953799;28;20092;-80
2023/09/29 12:30:21;;;;;;;5.40;3.33;;;23.20;99.90;;;;;;4963712;28;20030;-80
2023/09/29 12:32:48;;;;;;;5.10;3.05;;;23.30;99.90;;;;;;4963672;28;20027;-79
2023/09/29 12:35:13;;;;;;;4.47;2.85;;;23.40;99.90;;;;;;4962362;28;20057;-79
2023/09/29 12:37:42;;;;;;;3.47;3.00;;;23.30;99.90;;;;;;4967170;28;20051;-81